createdAt,value
2023-04-25T00:00:24.369Z,14.89
2023-04-25T00:03:46.676Z,14.88
2023-04-25T00:06:48.803Z,14.88
2023-04-25T00:09:50.994Z,14.87
2023-04-25T00:12:52.516Z,14.86
2023-04-25T00:15:54.144Z,14.86
2023-04-25T00:18:56.020Z,14.84
2023-04-25T00:21:57.829Z,14.83
2023-04-25T00:25:00.684Z,14.81
2023-04-25T00:28:02.360Z,14.80
2023-04-25T00:31:04.278Z,14.79
2023-04-25T00:34:08.652Z,14.77
2023-04-25T00:37:10.992Z,14.75
2023-04-25T00:40:12.843Z,14.74
2023-04-25T00:43:14.597Z,14.73
2023-04-25T00:46:16.334Z,14.72
2023-04-25T00:49:18.126Z,14.71
2023-04-25T00:52:28.881Z,14.69
2023-04-25T00:55:31.863Z,14.67
2023-04-25T00:58:34.218Z,14.64
2023-04-25T01:01:36.245Z,14.62
2023-04-25T01:04:38.349Z,14.60
2023-04-25T01:07:41.433Z,14.58
2023-04-25T01:10:43.215Z,14.57
2023-04-25T01:13:45.065Z,14.55
2023-04-25T01:16:46.997Z,14.53
2023-04-25T01:19:49.391Z,14.51
2023-04-25T01:22:51.757Z,14.49
2023-04-25T01:25:54.097Z,14.47
2023-04-25T01:28:56.155Z,14.45
2023-04-25T01:31:59.005Z,14.41
2023-04-25T01:35:01.041Z,14.40
2023-04-25T01:38:02.716Z,14.37
2023-04-25T01:41:05.659Z,14.35
2023-04-25T01:44:07.490Z,14.33
2023-04-25T01:47:09.156Z,14.30
2023-04-25T01:50:11.651Z,14.27
2023-04-25T01:53:15.105Z,14.25
2023-04-25T01:56:19.249Z,14.23
2023-04-25T01:59:22.328Z,14.20
2023-04-25T02:02:44.433Z,14.19
2023-04-25T02:05:55.784Z,14.15
2023-04-25T02:08:58.147Z,14.11
2023-04-25T02:12:00.194Z,14.09
2023-04-25T02:15:08.461Z,14.06
2023-04-25T02:18:16.690Z,14.03
2023-04-25T02:21:18.809Z,14.02
2023-04-25T02:24:20.668Z,13.99
2023-04-25T02:27:22.380Z,13.96
2023-04-25T02:30:24.254Z,13.94
2023-04-25T02:33:26.067Z,13.92
2023-04-25T02:36:28.030Z,13.89
2023-04-25T02:39:29.710Z,13.86
2023-04-25T02:42:31.497Z,13.84
2023-04-25T02:45:33.226Z,13.81
2023-04-25T02:48:34.927Z,13.78
2023-04-25T02:51:36.589Z,13.74
2023-04-25T02:54:40.466Z,13.70
2023-04-25T02:57:42.184Z,13.66
2023-04-25T03:00:45.440Z,13.62
2023-04-25T03:03:47.285Z,13.59
2023-04-25T03:06:49.009Z,13.56
2023-04-25T03:09:50.802Z,13.52
2023-04-25T03:12:52.492Z,13.50
2023-04-25T03:15:54.959Z,13.47
2023-04-25T03:18:57.196Z,13.43
2023-04-25T03:21:58.826Z,13.39
2023-04-25T03:25:00.699Z,13.38
2023-04-25T03:28:02.415Z,13.33
2023-04-25T03:31:04.182Z,13.30
2023-04-25T03:34:05.876Z,13.27
2023-04-25T03:37:07.622Z,13.25
2023-04-25T03:40:12.560Z,13.23
2023-04-25T03:43:43.230Z,13.21
2023-04-25T03:46:47.632Z,13.20
2023-04-25T03:49:52.105Z,13.18
2023-04-25T03:52:56.721Z,13.17
2023-04-25T03:56:03.030Z,13.17
2023-04-25T03:59:06.148Z,13.16
2023-04-25T04:02:07.920Z,13.15
2023-04-25T04:05:11.238Z,13.15
2023-04-25T04:08:17.714Z,13.14
2023-04-25T04:11:20.791Z,13.12
2023-04-25T04:14:22.814Z,13.11
2023-04-25T04:17:25.700Z,13.10
2023-04-25T04:20:27.618Z,13.08
2023-04-25T04:23:30.103Z,13.07
2023-04-25T04:26:34.020Z,13.06
2023-04-25T04:29:44.656Z,13.05
2023-04-25T04:32:54.417Z,13.05
2023-04-25T04:35:56.808Z,13.05
2023-04-25T04:38:58.669Z,13.04
2023-04-25T04:42:24.548Z,13.04
2023-04-25T04:45:44.964Z,13.03
2023-04-25T04:49:05.681Z,13.02
2023-04-25T04:52:21.180Z,13.03
2023-04-25T04:55:54.905Z,13.03
2023-04-25T04:59:22.468Z,13.03
2023-04-25T05:02:42.576Z,13.03
2023-04-25T05:06:03.780Z,13.02
2023-04-25T05:09:26.152Z,13.02
2023-04-25T05:13:04.227Z,13.00
2023-04-25T05:16:24.322Z,12.98
2023-04-25T05:19:48.908Z,12.96
2023-04-25T05:23:13.594Z,12.95
2023-04-25T05:26:31.323Z,12.94
2023-04-25T05:29:56.338Z,12.93
2023-04-25T05:33:04.531Z,12.92
2023-04-25T05:36:07.308Z,12.91
2023-04-25T05:39:09.346Z,12.92
2023-04-25T05:42:29.612Z,12.90
2023-04-25T05:45:47.207Z,12.88
2023-04-25T05:49:16.035Z,12.88
2023-04-25T05:52:40.259Z,12.88
2023-04-25T05:55:53.349Z,12.87
2023-04-25T05:59:00.557Z,12.87
2023-04-25T06:02:02.411Z,12.87
2023-04-25T06:05:04.897Z,12.86
2023-04-25T06:08:07.511Z,12.84
2023-04-25T06:11:09.538Z,12.85
2023-04-25T06:14:11.256Z,12.86
2023-04-25T06:17:15.413Z,12.89
2023-04-25T06:20:17.207Z,12.91
2023-04-25T06:23:18.952Z,12.93
2023-04-25T06:26:25.857Z,12.94
2023-04-25T06:29:27.921Z,12.95
2023-04-25T06:32:30.363Z,12.96
2023-04-25T06:35:33.694Z,12.96
2023-04-25T06:38:35.848Z,12.99
2023-04-25T06:41:37.719Z,13.02
2023-04-25T06:44:41.646Z,13.05
2023-04-25T06:47:44.125Z,13.07
2023-04-25T06:50:46.124Z,13.09
2023-04-25T06:53:47.857Z,13.11
2023-04-25T06:56:58.710Z,13.12
2023-04-25T07:00:05.696Z,13.12
2023-04-25T07:03:07.686Z,13.14
2023-04-25T07:06:09.556Z,13.16
2023-04-25T07:09:11.766Z,13.18
2023-04-25T07:12:14.201Z,13.22
2023-04-25T07:15:16.256Z,13.27
2023-04-25T07:18:19.249Z,13.30
2023-04-25T07:21:21.542Z,13.33
2023-04-25T07:24:24.895Z,13.37
2023-04-25T07:27:26.987Z,13.39
2023-04-25T07:30:37.886Z,13.41
2023-04-25T07:33:39.820Z,13.41
2023-04-25T07:36:41.963Z,13.40
2023-04-25T07:39:43.740Z,13.39
2023-04-25T07:42:46.098Z,13.39
2023-04-25T07:45:51.365Z,13.41
2023-04-25T07:48:54.051Z,13.42
2023-04-25T07:51:56.854Z,13.43
2023-04-25T07:54:59.036Z,13.45
2023-04-25T07:58:08.609Z,13.47
2023-04-25T08:01:11.981Z,13.49
2023-04-25T08:04:19.834Z,13.51
2023-04-25T08:07:35.525Z,13.53
2023-04-25T08:10:39.017Z,13.56
2023-04-25T08:13:40.981Z,13.59
2023-04-25T08:16:43.322Z,13.66
2023-04-25T08:19:45.369Z,13.72
2023-04-25T08:22:53.811Z,13.77
2023-04-25T08:26:17.548Z,13.84
2023-04-25T08:29:19.471Z,13.90
2023-04-25T08:32:21.879Z,13.95
2023-04-25T08:35:36.872Z,14.01
2023-04-25T08:38:38.757Z,14.07
2023-04-25T08:41:41.936Z,14.14
2023-04-25T08:44:46.460Z,14.18
2023-04-25T08:47:53.336Z,14.21
2023-04-25T08:50:56.706Z,14.28
2023-04-25T08:57:20.304Z,14.46
2023-04-25T09:00:23.288Z,14.50
2023-04-25T09:03:25.327Z,14.56
2023-04-25T09:06:29.548Z,14.60
2023-04-25T09:09:31.620Z,14.65
2023-04-25T09:12:35.394Z,14.71
2023-04-25T09:15:57.607Z,14.76
2023-04-25T09:19:40.878Z,14.78
2023-04-25T09:23:06.051Z,14.74
2023-04-25T09:26:10.207Z,14.69
2023-04-25T09:29:11.873Z,14.69
2023-04-25T09:32:21.460Z,14.67
2023-04-25T09:35:28.395Z,14.63
2023-04-25T09:38:33.251Z,14.62
2023-04-25T09:41:46.168Z,14.63
2023-04-25T09:44:48.139Z,14.65
2023-04-25T09:47:51.018Z,14.68
2023-04-25T09:51:14.976Z,14.73
2023-04-25T09:54:17.914Z,14.78
2023-04-25T09:57:25.131Z,14.85
2023-04-25T10:00:28.594Z,14.92
2023-04-25T10:03:35.530Z,14.96
2023-04-25T10:06:53.874Z,14.99
2023-04-25T10:10:02.171Z,15.01
2023-04-25T10:13:05.998Z,15.05
2023-04-25T10:16:08.483Z,15.12
2023-04-25T10:19:11.231Z,15.16
2023-04-25T10:22:29.954Z,15.21
2023-04-25T10:25:32.306Z,15.23
2023-04-25T10:28:58.758Z,15.25
2023-04-25T10:32:01.039Z,15.28
2023-04-25T10:35:27.533Z,15.29
2023-04-25T10:38:29.305Z,15.29
2023-04-25T10:41:31.082Z,15.27
2023-04-25T10:44:33.026Z,15.24
2023-04-25T10:47:47.824Z,15.25
2023-04-25T10:50:49.863Z,15.28
2023-04-25T10:54:12.176Z,15.28
2023-04-25T10:57:32.464Z,15.27
2023-04-25T11:00:56.891Z,15.28
2023-04-25T11:04:01.502Z,15.27
2023-04-25T11:07:07.467Z,15.26
2023-04-25T11:10:10.234Z,15.24
2023-04-25T11:13:12.209Z,15.23
2023-04-25T11:19:21.195Z,15.19
2023-04-25T11:22:23.637Z,15.19
2023-04-25T11:25:26.220Z,15.19
2023-04-25T11:28:28.134Z,15.16
2023-04-25T11:31:30.632Z,15.10
2023-04-25T11:34:35.781Z,15.06
2023-04-25T11:37:40.572Z,15.02
2023-04-25T11:40:42.329Z,14.99
2023-04-25T11:43:44.713Z,14.94
2023-04-25T11:46:47.137Z,14.89
2023-04-25T11:49:49.285Z,14.85
2023-04-25T11:52:51.392Z,14.82
2023-04-25T11:55:53.632Z,14.77
2023-04-25T11:58:56.875Z,14.71
2023-04-25T12:01:58.862Z,14.66
2023-04-25T12:05:11.820Z,14.63
2023-04-25T12:08:18.058Z,14.60
2023-04-25T12:11:22.993Z,14.59
2023-04-25T12:14:29.765Z,14.57
2023-04-25T12:17:31.737Z,14.54
2023-04-25T12:20:34.480Z,14.52
2023-04-25T12:23:39.946Z,14.51
2023-04-25T12:26:59.447Z,14.49
2023-04-25T12:30:02.164Z,14.47
2023-04-25T12:33:04.088Z,14.45
2023-04-25T12:36:11.084Z,14.42
2023-04-25T12:39:20.700Z,14.41
2023-04-25T12:42:22.446Z,14.40
2023-04-25T12:45:24.186Z,14.40
2023-04-25T12:48:26.036Z,14.41
2023-04-25T12:51:28.315Z,14.43
2023-04-25T12:54:30.159Z,14.46
2023-04-25T12:57:31.976Z,14.51
2023-04-25T13:00:34.171Z,14.56
2023-04-25T13:03:36.214Z,14.59
2023-04-25T13:06:38.487Z,14.61
2023-04-25T13:09:40.463Z,14.59
2023-04-25T13:12:44.239Z,14.55
2023-04-25T13:15:46.602Z,14.51
2023-04-25T13:18:48.349Z,14.47
2023-04-25T13:21:50.350Z,14.45
2023-04-25T13:24:52.083Z,14.40
2023-04-25T13:27:53.815Z,14.35
2023-04-25T13:30:55.876Z,14.31
2023-04-25T13:33:57.530Z,14.28
2023-04-25T13:36:59.348Z,14.26
2023-04-25T13:40:04.659Z,14.25
2023-04-25T13:43:09.142Z,14.23
2023-04-25T13:46:30.164Z,14.25
2023-04-25T13:49:33.832Z,14.27
2023-04-25T13:52:35.749Z,14.31
2023-04-25T13:55:37.895Z,14.36
2023-04-25T13:58:39.970Z,14.42
2023-04-25T14:01:41.985Z,14.50
2023-04-25T14:04:43.855Z,14.56
2023-04-25T14:07:46.147Z,14.59
2023-04-25T14:10:47.984Z,14.61
2023-04-25T14:13:49.981Z,14.65
2023-04-25T14:16:54.155Z,14.66
2023-04-25T14:19:55.913Z,14.65
2023-04-25T14:22:58.523Z,14.64
2023-04-25T14:26:00.498Z,14.62
2023-04-25T14:29:02.256Z,14.63
2023-04-25T14:32:05.568Z,14.64
2023-04-25T14:35:07.662Z,14.69
2023-04-25T14:38:09.338Z,14.76
2023-04-25T14:41:11.332Z,14.80
2023-04-25T14:44:13.066Z,14.83
2023-04-25T14:47:22.540Z,14.83
2023-04-25T14:50:26.577Z,14.80
2023-04-25T14:53:31.134Z,14.75
2023-04-25T14:56:32.927Z,14.71
2023-04-25T14:59:35.065Z,14.67
2023-04-25T15:02:37.753Z,14.65
2023-04-25T15:05:41.226Z,14.64
2023-04-25T15:08:43.370Z,14.64
2023-04-25T15:11:45.914Z,14.64
2023-04-25T15:14:47.847Z,14.66
2023-04-25T15:17:49.891Z,14.74
2023-04-25T15:20:52.451Z,14.81
2023-04-25T15:23:54.376Z,14.83
2023-04-25T15:26:56.927Z,14.82
2023-04-25T15:29:58.652Z,14.79
2023-04-25T15:33:00.508Z,14.72
2023-04-25T15:36:03.627Z,14.64
2023-04-25T15:39:05.344Z,14.59
2023-04-25T15:42:07.639Z,14.56
2023-04-25T15:45:11.416Z,14.54
2023-04-25T15:48:13.246Z,14.51
2023-04-25T15:51:16.533Z,14.49
2023-04-25T15:54:18.316Z,14.47
2023-04-25T15:57:20.362Z,14.46
2023-04-25T16:00:22.312Z,14.45
2023-04-25T16:03:24.316Z,14.43
2023-04-25T16:06:26.790Z,14.41
2023-04-25T16:09:28.969Z,14.39
2023-04-25T16:12:30.749Z,14.34
2023-04-25T16:15:34.617Z,14.28
2023-04-25T16:18:37.359Z,14.23
2023-04-25T16:21:39.577Z,14.19
2023-04-25T16:24:42.468Z,14.18
2023-04-25T16:27:44.297Z,14.17
2023-04-25T16:30:46.445Z,14.17
2023-04-25T16:33:51.324Z,14.18
2023-04-25T16:36:56.466Z,14.20
2023-04-25T16:40:00.414Z,14.18
2023-04-25T16:43:02.221Z,14.16
2023-04-25T16:46:04.126Z,14.13
2023-04-25T16:49:06.101Z,14.08
2023-04-25T16:52:08.217Z,14.04
2023-04-25T16:55:10.015Z,14.00
2023-04-25T16:58:12.045Z,13.95
2023-04-25T17:01:19.384Z,13.92
2023-04-25T17:04:21.366Z,13.87
2023-04-25T17:07:23.776Z,13.84
2023-04-25T17:10:25.451Z,13.82
2023-04-25T17:13:30.773Z,13.81
2023-04-25T17:16:35.856Z,13.79
2023-04-25T17:19:37.779Z,13.77
2023-04-25T17:22:39.798Z,13.73
2023-04-25T17:25:41.650Z,13.69
2023-04-25T17:28:48.407Z,13.64
2023-04-25T17:31:50.701Z,13.60
2023-04-25T17:34:52.375Z,13.56
2023-04-25T17:37:54.076Z,13.52
2023-04-25T17:40:55.802Z,13.48
2023-04-25T17:43:57.516Z,13.42
2023-04-25T17:47:00.623Z,13.37
2023-04-25T17:50:03.559Z,13.33
2023-04-25T17:53:05.697Z,13.28
2023-04-25T17:56:19.407Z,13.24
2023-04-25T17:59:28.067Z,13.20
2023-04-25T18:02:30.731Z,13.15
2023-04-25T18:05:32.702Z,13.11
2023-04-25T18:08:34.360Z,13.07
2023-04-25T18:11:36.180Z,13.04
2023-04-25T18:14:39.082Z,13.02
2023-04-25T18:17:41.317Z,13.00
2023-04-25T18:20:44.661Z,12.97
2023-04-25T18:23:47.304Z,12.95
2023-04-25T18:26:49.866Z,12.94
2023-04-25T18:29:51.550Z,12.92
2023-04-25T18:32:54.521Z,12.91
2023-04-25T18:35:59.683Z,12.89
2023-04-25T18:39:15.554Z,12.87
2023-04-25T18:42:24.505Z,12.85
2023-04-25T18:45:26.153Z,12.84
2023-04-25T18:48:28.008Z,12.84
2023-04-25T18:51:30.899Z,12.82
2023-04-25T18:54:32.650Z,12.79
2023-04-25T18:57:34.301Z,12.78
2023-04-25T19:00:37.309Z,12.76
2023-04-25T19:03:39.704Z,12.74
2023-04-25T19:06:41.797Z,12.72
2023-04-25T19:09:46.783Z,12.71
2023-04-25T19:12:48.660Z,12.69
2023-04-25T19:15:50.405Z,12.69
2023-04-25T19:18:54.365Z,12.67
2023-04-25T19:21:58.302Z,12.65
2023-04-25T19:25:10.014Z,12.64
2023-04-25T19:28:13.287Z,12.63
2023-04-25T19:31:16.065Z,12.62
2023-04-25T19:34:17.965Z,12.61
2023-04-25T19:37:19.968Z,12.61
2023-04-25T19:40:22.124Z,12.59
2023-04-25T19:43:24.035Z,12.58
2023-04-25T19:46:26.366Z,12.57
2023-04-25T19:49:28.098Z,12.54
2023-04-25T19:52:30.984Z,12.53
2023-04-25T19:55:32.747Z,12.50
2023-04-25T19:58:35.070Z,12.46
2023-04-25T20:01:36.767Z,12.44
2023-04-25T20:04:39.209Z,12.42
2023-04-25T20:07:41.753Z,12.36
2023-04-25T20:10:43.652Z,12.31
2023-04-25T20:13:45.353Z,12.27
2023-04-25T20:16:47.268Z,12.23
2023-04-25T20:19:48.974Z,12.17
2023-04-25T20:22:50.944Z,12.13
2023-04-25T20:25:52.770Z,12.09
2023-04-25T20:28:54.896Z,12.04
2023-04-25T20:31:57.173Z,12.00
2023-04-25T20:34:59.127Z,11.98
2023-04-25T20:38:01.237Z,11.94
2023-04-25T20:41:03.157Z,11.92
2023-04-25T20:44:06.918Z,11.90
2023-04-25T20:47:09.610Z,11.88
2023-04-25T20:50:11.563Z,11.86
2023-04-25T20:53:14.406Z,11.84
2023-04-25T20:56:16.418Z,11.83
2023-04-25T20:59:18.138Z,11.80
2023-04-25T21:02:19.933Z,11.78
2023-04-25T21:05:22.257Z,11.76
2023-04-25T21:08:24.090Z,11.73
2023-04-25T21:11:26.632Z,11.72
2023-04-25T21:14:28.529Z,11.72
2023-04-25T21:17:30.287Z,11.67
2023-04-25T21:20:32.372Z,11.63
2023-04-25T21:23:34.159Z,11.60
2023-04-25T21:26:35.953Z,11.58
2023-04-25T21:29:37.626Z,11.55
2023-04-25T21:32:39.776Z,11.54
2023-04-25T21:35:41.494Z,11.52
2023-04-25T21:38:43.194Z,11.49
2023-04-25T21:41:45.774Z,11.47
2023-04-25T21:44:47.387Z,11.44
2023-04-25T21:47:49.986Z,11.41
2023-04-25T21:50:51.972Z,11.40
2023-04-25T21:53:53.691Z,11.38
2023-04-25T21:56:56.568Z,11.36
2023-04-25T21:59:58.466Z,11.35
2023-04-25T22:03:00.538Z,11.34
2023-04-25T22:06:03.259Z,11.34
2023-04-25T22:09:05.041Z,11.34
2023-04-25T22:12:07.430Z,11.32
2023-04-25T22:15:09.826Z,11.31
2023-04-25T22:18:12.671Z,11.30
2023-04-25T22:21:14.505Z,11.30
2023-04-25T22:24:16.196Z,11.29
2023-04-25T22:27:17.904Z,11.29
2023-04-25T22:30:19.830Z,11.27
2023-04-25T22:33:21.718Z,11.25
2023-04-25T22:36:23.485Z,11.24
2023-04-25T22:39:25.180Z,11.22
2023-04-25T22:42:26.869Z,11.21
2023-04-25T22:45:28.635Z,11.20
2023-04-25T22:48:30.334Z,11.19
2023-04-25T22:51:32.566Z,11.19
2023-04-25T22:54:34.637Z,11.18
2023-04-25T22:57:38.012Z,11.18
2023-04-25T23:00:40.768Z,11.19
2023-04-25T23:03:43.035Z,11.19
2023-04-25T23:06:45.694Z,11.18
2023-04-25T23:09:47.430Z,11.18
2023-04-25T23:12:49.453Z,11.15
2023-04-25T23:15:51.324Z,11.13
2023-04-25T23:18:53.252Z,11.12
2023-04-25T23:21:55.173Z,11.09
2023-04-25T23:24:57.024Z,11.07
2023-04-25T23:27:58.761Z,11.03
2023-04-25T23:31:04.900Z,11.00
2023-04-25T23:34:07.025Z,10.97
2023-04-25T23:37:08.723Z,10.95
2023-04-25T23:40:13.681Z,10.92
2023-04-25T23:43:16.184Z,10.90
2023-04-25T23:46:18.255Z,10.88
2023-04-25T23:49:20.412Z,10.87
2023-04-25T23:52:22.984Z,10.85
2023-04-25T23:55:24.779Z,10.82
2023-04-25T23:58:26.458Z,10.80
